Time;durP1;ratioP1;P1;durP2;ratioP2;P2;SDS_P1;SDS_P2;PMS_P1;PMS_P2;Temp;Humidity;BMP_temperature;BMP_pressure;BME280_temperature;BME280_humidity;BME280_pressure;Samples;Min_cycle;Max_cycle;Signal;HPM_P1;HPM_P2
2023/07/20 00:01:58;;;;;;;13.13;9.90;;;;;;;-141.97;52.31;47342.25;5056968;28;20292;-76
2023/07/20 00:04:23;;;;;;;13.30;9.30;;;;;;;-141.97;52.23;47338.41;5058981;28;20616;-75
2023/07/20 00:06:48;;;;;;;12.20;8.63;;;;;;;-141.97;52.13;47340.34;5058968;28;20188;-76
2023/07/20 00:09:14;;;;;;;14.60;9.17;;;;;;;-141.97;51.78;47290.38;5058250;28;20291;-77
2023/07/20 00:11:39;;;;;;;14.73;9.13;;;;;;;-141.97;52.13;47273.06;5056604;28;20177;-76
2023/07/20 00:14:05;;;;;;;12.77;8.67;;;;;;;-141.97;51.34;47349.94;5055619;28;20227;-76
2023/07/20 00:16:31;;;;;;;13.77;8.73;;;;;;;-141.97;50.52;47334.56;5059311;28;20169;-76
2023/07/20 00:18:56;;;;;;;15.93;9.10;;;;;;;-141.97;49.94;47336.50;5056642;28;20279;-75
2023/07/20 00:21:22;;;;;;;12.37;8.90;;;;;;;-141.97;49.00;47313.44;5057943;28;20829;-76
2023/07/20 00:23:47;;;;;;;13.77;8.60;;;;;;;-141.97;49.00;47338.41;5059180;28;20169;-76
2023/07/20 00:26:12;;;;;;;13.30;8.03;;;;;;;-141.97;47.95;47299.97;5059660;28;20268;-76
2023/07/20 00:28:38;;;;;;;13.47;8.30;;;;;;;-141.97;47.76;47315.34;5057155;28;20563;-76
2023/07/20 00:31:04;;;;;;;12.73;8.57;;;;;;;-141.97;47.72;47275.00;5058121;28;20145;-76
2023/07/20 00:33:29;;;;;;;13.83;8.07;;;;;;;-141.97;47.25;47326.88;5059709;28;20681;-76
2023/07/20 00:35:55;;;;;;;12.73;8.27;;;;;;;-141.97;47.12;47319.19;5058959;28;20623;-76
2023/07/20 00:38:20;;;;;;;10.83;8.37;;;;;;;-141.97;47.14;47299.97;5050258;28;20284;-76
2023/07/20 00:40:46;;;;;;;12.43;8.97;;;;;;;-141.97;46.84;47315.34;5065125;28;20761;-76
2023/07/20 00:43:11;;;;;;;12.77;8.90;;;;;;;-141.97;46.63;47319.19;5064844;28;20180;-76
2023/07/20 00:45:38;;;;;;;12.43;8.77;;;;;;;-141.97;46.63;47292.28;5059656;28;20282;-75
2023/07/20 00:48:06;;;;;;;13.27;8.07;;;;;;;-141.97;46.29;47324.97;5055588;28;20186;-75
2023/07/20 00:50:33;;;;;;;11.93;8.20;;;;;;;-141.97;45.75;47296.13;5053663;28;20193;-77
2023/07/20 00:52:59;;;;;;;12.32;8.75;;;;;;;-141.97;45.24;47296.13;5055463;28;20170;-76
2023/07/20 00:55:25;;;;;;;11.23;8.15;;;;;;;-141.97;44.84;47332.66;5052795;28;20190;-75
2023/07/20 00:57:51;;;;;;;14.13;8.68;;;;;;;-141.97;44.93;47253.84;5052146;28;20187;-75
2023/07/20 01:00:17;;;;;;;13.85;8.38;;;;;;;-141.97;45.03;47315.34;5051426;28;20177;-75
2023/07/20 01:02:42;;;;;;;15.77;8.73;;;;;;;-141.97;45.00;47311.50;5051687;28;20392;-75
2023/07/20 01:05:08;;;;;;;16.13;8.18;;;;;;;-141.97;45.00;47311.50;5053491;28;20163;-75
2023/07/20 01:07:43;;;;;;;19.77;8.65;;;;;;;-141.97;45.17;47305.75;5053007;28;20195;-76
2023/07/20 01:10:25;;;;;;;18.40;8.55;;;;;;;-141.97;45.28;47294.22;5052654;28;20209;-76
2023/07/20 01:12:55;;;;;;;16.83;8.73;;;;;;;-141.97;45.21;47365.31;5047496;28;20278;-76
2023/07/20 01:15:20;;;;;;;15.70;8.40;;;;;;;-141.97;44.71;47299.97;5051533;28;20526;-76
2023/07/20 01:17:46;;;;;;;18.35;8.85;;;;;;;-141.97;45.01;47284.59;5052007;28;20181;-76
2023/07/20 01:20:17;;;;;;;16.83;8.40;;;;;;;-141.97;44.81;47286.53;5051854;28;20262;-75
2023/07/20 01:22:46;;;;;;;12.80;7.85;;;;;;;-141.97;44.62;47292.28;5051854;28;20315;-76
2023/07/20 01:25:30;;;;;;;13.20;8.13;;;;;;;-141.97;44.25;47288.44;5052809;28;20205;-75
2023/07/20 01:27:58;;;;;;;14.07;8.13;;;;;;;-141.97;44.36;47313.44;5061386;28;20177;-76
2023/07/20 01:31:04;;;;;;;14.68;8.05;;;;;;;-141.97;44.45;47292.28;5059532;28;20512;-76
2023/07/20 01:33:33;;;;;;;14.95;8.25;;;;;;;-141.97;44.57;47311.50;5067011;28;20192;-75
2023/07/20 01:36:00;;;;;;;12.82;8.30;;;;;;;-141.97;45.10;47346.09;5057978;28;20611;-75
2023/07/20 01:38:26;;;;;;;11.57;8.43;;;;;;;-141.97;44.85;47303.81;5053378;28;20226;-75
2023/07/20 01:40:52;;;;;;;13.00;8.20;;;;;;;-141.97;44.78;47313.44;5050279;28;20260;-76
2023/07/20 01:43:18;;;;;;;19.17;8.82;;;;;;;-141.97;44.68;47265.38;5070177;28;20190;-76
2023/07/20 01:45:43;;;;;;;11.60;8.20;;;;;;;-141.97;44.94;47326.88;5066217;28;20708;-75
2023/07/20 01:48:09;;;;;;;11.75;8.00;;;;;;;-141.97;44.90;47321.13;5054711;28;20208;-76
2023/07/20 01:50:35;;;;;;;17.77;8.38;;;;;;;-141.97;45.68;47292.28;5062485;28;20587;-76
2023/07/20 01:53:01;;;;;;;18.15;8.68;;;;;;;-141.97;45.54;47303.81;5050730;28;20176;-76
2023/07/20 01:55:26;;;;;;;13.00;8.45;;;;;;;-141.97;46.01;47321.13;5050142;28;20202;-76
2023/07/20 01:57:52;;;;;;;13.18;8.07;;;;;;;-141.97;45.80;47319.19;5050396;28;20196;-76
2023/07/20 02:00:21;;;;;;;12.77;8.50;;;;;;;-141.97;46.01;47298.06;5050302;28;20184;-75
2023/07/20 02:02:47;;;;;;;14.52;8.40;;;;;;;-141.97;45.87;47382.63;5050481;28;20188;-75
2023/07/20 02:05:12;;;;;;;12.65;8.32;;;;;;;-141.97;45.32;47296.13;5050598;28;20190;-75
2023/07/20 02:07:37;;;;;;;14.60;7.82;;;;;;;-141.97;45.87;47307.66;5049784;28;20547;-75
2023/07/20 02:10:03;;;;;;;14.50;7.75;;;;;;;-141.97;45.77;47422.97;5048818;28;20210;-76
2023/07/20 02:12:28;;;;;;;15.35;8.02;;;;;;;-141.97;46.09;47330.72;5050468;28;20299;-75
2023/07/20 02:14:54;;;;;;;12.48;7.97;;;;;;;-141.97;46.04;47353.78;5050244;28;20647;-76
2023/07/20 02:17:19;;;;;;;14.23;7.72;;;;;;;-141.97;45.02;47338.41;5050190;28;20208;-75
2023/07/20 02:19:45;;;;;;;13.10;8.32;;;;;;;-141.97;45.87;47290.38;5050409;28;20255;-76
2023/07/20 02:22:10;;;;;;;11.90;7.90;;;;;;;-141.97;46.71;47303.81;5049391;28;20657;-77
2023/07/20 02:24:36;;;;;;;13.93;8.13;;;;;;;-141.97;46.96;47330.72;5049765;28;20194;-76
2023/07/20 02:27:01;;;;;;;16.73;8.95;;;;;;;-141.97;46.85;47253.84;5050899;28;20179;-75
2023/07/20 02:29:27;;;;;;;17.67;9.00;;;;;;;-141.97;46.94;47336.50;5050559;28;20288;-76
2023/07/20 02:31:52;;;;;;;15.52;8.90;;;;;;;-141.97;47.29;47324.97;5050234;28;20205;-77
2023/07/20 02:34:17;;;;;;;12.30;8.65;;;;;;;-141.97;47.49;47328.81;5049918;28;20220;-76
2023/07/20 02:36:43;;;;;;;13.88;8.35;;;;;;;-141.97;47.48;47338.41;5050890;28;20598;-76
2023/07/20 02:39:09;;;;;;;14.23;8.30;;;;;;;-141.97;47.02;47330.72;5050813;28;20245;-75
2023/07/20 02:41:35;;;;;;;13.27;8.10;;;;;;;-141.97;47.67;47332.66;5052004;28;20241;-75
2023/07/20 02:44:01;;;;;;;15.85;9.00;;;;;;;-141.97;47.46;47338.41;5051852;28;20607;-75
2023/07/20 02:46:29;;;;;;;22.13;9.55;;;;;;;-141.97;46.88;47311.50;5051814;28;20217;-75
2023/07/20 02:48:55;;;;;;;30.73;10.52;;;;;;;-141.97;46.79;47250.00;5051898;28;20166;-75
2023/07/20 02:51:21;;;;;;;27.77;10.97;;;;;;;-141.97;46.60;47342.25;5052052;28;20532;-76
2023/07/20 02:53:46;;;;;;;22.77;9.43;;;;;;;-141.97;47.61;47323.03;5051355;28;20259;-76
2023/07/20 02:56:11;;;;;;;19.85;9.43;;;;;;;-141.97;47.67;47326.88;5050997;28;20158;-76
2023/07/20 02:58:43;;;;;;;22.95;9.40;;;;;;;-141.97;47.74;47330.72;5051576;28;20231;-76
2023/07/20 03:01:09;;;;;;;20.45;11.10;;;;;;;-141.97;47.85;47305.75;5051405;28;20198;-76
2023/07/20 03:03:38;;;;;;;33.25;12.30;;;;;;;-141.97;47.84;47326.88;5051157;28;20161;-76
2023/07/20 03:06:04;;;;;;;22.60;10.48;;;;;;;-141.97;48.42;47319.19;5051069;28;20165;-76
2023/07/20 03:08:30;;;;;;;18.27;9.75;;;;;;;-141.97;48.16;47317.28;5050452;28;20660;-76
2023/07/20 03:10:55;;;;;;;19.00;8.80;;;;;;;-141.97;48.46;47357.63;5050905;28;20161;-75
2023/07/20 03:13:21;;;;;;;15.37;8.10;;;;;;;-141.97;48.30;47319.19;5050804;28;20162;-75
2023/07/20 03:15:46;;;;;;;18.17;8.90;;;;;;;-141.97;48.65;47357.63;5050829;28;20170;-75
2023/07/20 03:18:11;;;;;;;15.57;8.50;;;;;;;-141.97;48.49;47338.41;5050701;28;20537;-75
2023/07/20 03:20:38;;;;;;;33.73;11.73;;;;;;;-141.97;48.39;47307.66;5050435;28;20193;-75
2023/07/20 03:23:04;;;;;;;30.30;11.90;;;;;;;-141.97;48.30;47344.19;5050466;28;20252;-75
2023/07/20 03:25:29;;;;;;;27.43;10.83;;;;;;;-141.97;48.35;47349.94;5050552;28;20615;-75
2023/07/20 03:27:55;;;;;;;15.17;9.50;;;;;;;-141.97;48.03;47355.72;5051093;28;20165;-76
2023/07/20 03:30:20;;;;;;;15.73;9.40;;;;;;;-141.97;47.90;47290.38;5050496;28;20165;-75
2023/07/20 03:32:45;;;;;;;17.17;9.17;;;;;;;-141.97;47.94;47357.63;5050669;28;20169;-76
2023/07/20 03:35:11;;;;;;;16.07;8.73;;;;;;;-141.97;47.63;47342.25;5050895;28;20610;-77
2023/07/20 03:37:38;;;;;;;21.73;8.90;;;;;;;-141.97;48.01;47355.72;5050514;28;20244;-77
2023/07/20 03:40:04;;;;;;;17.90;9.13;;;;;;;-141.97;47.37;47361.47;5050349;28;20161;-76
2023/07/20 03:42:30;;;;;;;21.80;9.50;;;;;;;-141.97;48.12;47363.41;5050513;28;20525;-76
2023/07/20 03:44:56;;;;;;;21.13;9.90;;;;;;;-141.97;47.82;47336.50;5050647;28;20605;-76
2023/07/20 03:47:21;;;;;;;14.10;8.20;;;;;;;-141.97;48.02;47301.91;5050078;28;20236;-76
2023/07/20 03:49:46;;;;;;;15.10;8.77;;;;;;;-141.97;47.29;47313.44;5050134;28;20231;-76
2023/07/20 03:52:12;;;;;;;15.90;8.73;;;;;;;-141.97;47.67;47288.44;5050141;28;20158;-76
2023/07/20 03:54:37;;;;;;;12.90;8.93;;;;;;;-141.97;47.71;47330.72;5050337;28;20181;-76
2023/07/20 03:57:03;;;;;;;13.23;8.77;;;;;;;-141.97;47.46;47348.03;5050083;28;20499;-76
2023/07/20 03:59:28;;;;;;;16.80;8.25;;;;;;;-141.97;47.43;47324.97;5050455;28;20528;-76
2023/07/20 04:01:54;;;;;;;14.07;8.90;;;;;;;-141.97;47.55;47334.56;5049787;28;20190;-76
2023/07/20 04:04:19;;;;;;;16.73;9.20;;;;;;;-141.97;47.81;47353.78;5048609;28;20257;-76
2023/07/20 04:06:45;;;;;;;13.63;9.17;;;;;;;-141.97;47.63;47338.41;5049991;28;20162;-76
2023/07/20 04:09:12;;;;;;;17.15;8.98;;;;;;;-141.97;48.06;47332.66;5049663;28;20180;-76
2023/07/20 04:11:37;;;;;;;15.48;8.80;;;;;;;-141.97;49.19;47380.69;5050329;28;20260;-76
2023/07/20 04:14:02;;;;;;;19.75;9.27;;;;;;;-141.97;48.87;47330.72;5036095;28;20233;-76
2023/07/20 04:16:28;;;;;;;15.43;8.87;;;;;;;-141.97;49.28;47315.34;5050500;28;20204;-76
2023/07/20 04:18:56;;;;;;;13.82;8.73;;;;;;;-141.97;49.10;47328.81;5051442;28;20662;-76
2023/07/20 04:21:22;;;;;;;26.42;10.10;;;;;;;-141.97;47.05;47334.56;5050295;28;20215;-76
2023/07/20 04:23:47;;;;;;;28.63;10.35;;;;;;;-141.97;46.30;47319.19;5050011;28;20244;-76
2023/07/20 04:26:14;;;;;;;31.98;10.98;;;;;;;-141.97;45.90;47330.72;5048760;28;20261;-76
2023/07/20 04:28:42;;;;;;;37.92;11.40;;;;;;;-141.97;46.05;47321.13;5049979;28;20223;-76
2023/07/20 04:31:14;;;;;;;29.38;10.60;;;;;;;-141.97;45.98;47346.09;5052661;28;20274;-76
2023/07/20 04:33:40;;;;;;;32.13;10.25;;;;;;;-141.97;46.30;47317.28;5052410;28;20177;-76
2023/07/20 04:36:05;;;;;;;26.92;9.90;;;;;;;-141.97;45.52;47319.19;5054300;28;20593;-76
2023/07/20 04:38:31;;;;;;;17.15;9.52;;;;;;;-141.97;45.04;47323.03;5053043;28;20191;-75
2023/07/20 04:40:56;;;;;;;20.35;10.02;;;;;;;-141.97;45.20;47349.94;5052083;28;20216;-75
2023/07/20 04:43:22;;;;;;;19.42;9.90;;;;;;;-141.97;45.12;47496.00;5050414;28;20193;-75
2023/07/20 04:45:47;;;;;;;21.33;9.73;;;;;;;-141.97;44.97;47311.50;5053076;28;20584;-76
2023/07/20 04:48:15;;;;;;;18.30;10.25;;;;;;;-141.97;45.05;47299.97;5053431;28;20178;-75
2023/07/20 04:50:41;;;;;;;20.52;10.68;;;;;;;-141.97;45.32;47303.81;5053039;28;20538;-75
2023/07/20 04:53:10;;;;;;;19.98;10.18;;;;;;;-141.97;45.99;47319.19;5052388;28;20184;-75
2023/07/20 04:55:36;;;;;;;21.50;10.68;;;;;;;-141.97;46.07;47326.88;5052708;28;20604;-76
2023/07/20 04:58:03;;;;;;;21.02;10.88;;;;;;;-141.97;46.30;47275.00;5053196;28;20164;-75
2023/07/20 05:00:29;;;;;;;24.10;12.55;;;;;;;-141.97;45.87;47290.38;5052409;28;20290;-76
2023/07/20 05:02:55;;;;;;;28.75;13.00;;;;;;;-141.97;45.96;47324.97;5051144;28;20645;-75
2023/07/20 05:05:21;;;;;;;21.23;12.15;;;;;;;-141.97;45.99;47303.81;5052110;28;20246;-74
2023/07/20 05:07:46;;;;;;;20.83;11.73;;;;;;;-141.97;45.93;47173.13;5051649;28;20184;-75
2023/07/20 05:10:11;;;;;;;24.65;10.93;;;;;;;-141.97;46.40;47309.59;5052642;28;20525;-75
2023/07/20 05:12:37;;;;;;;23.85;11.25;;;;;;;-141.97;46.15;47401.84;5052538;28;20193;-75
2023/07/20 05:15:03;;;;;;;22.38;11.07;;;;;;;-141.97;45.78;47307.66;5042985;28;20330;-74
2023/07/20 05:17:29;;;;;;;26.88;10.65;;;;;;;-141.97;45.46;47317.28;5052230;28;20614;-75
2023/07/20 05:19:54;;;;;;;22.90;10.52;;;;;;;-141.97;44.93;47294.22;5051764;28;20174;-75
2023/07/20 05:22:20;;;;;;;20.75;10.30;;;;;;;-141.97;44.71;47307.66;5052286;28;20570;-75
2023/07/20 05:24:45;;;;;;;21.58;9.75;;;;;;;-141.97;44.96;47361.47;5051532;28;20218;-78
2023/07/20 05:27:11;;;;;;;18.70;9.77;;;;;;;-141.97;44.87;47311.50;5050282;28;20190;-76
2023/07/20 05:29:36;;;;;;;21.95;9.82;;;;;;;-141.97;44.64;47317.28;5051534;28;20180;-75
2023/07/20 05:32:02;;;;;;;17.58;9.93;;;;;;;-141.97;44.54;47292.28;5050791;28;20206;-76
2023/07/20 05:34:28;;;;;;;16.65;9.93;;;;;;;-141.97;44.47;47275.00;5048852;28;20188;-75
2023/07/20 05:38:14;;;;;;;16.83;9.77;;;;;;;-141.97;44.30;47309.59;5099548;27;20385;-76
2023/07/20 05:40:44;;;;;;;19.25;9.50;;;;;;;-141.97;44.16;47301.91;5084767;28;20260;-76
2023/07/20 05:43:11;;;;;;;19.38;8.63;;;;;;;-141.97;44.13;47223.09;5087112;28;20178;-75
2023/07/20 05:45:37;;;;;;;27.17;9.63;;;;;;;-141.97;43.58;47269.22;5083642;28;20200;-74
2023/07/20 05:48:03;;;;;;;17.25;9.60;;;;;;;-141.97;43.44;47324.97;5084139;28;20209;-75
2023/07/20 05:50:29;;;;;;;19.25;9.18;;;;;;;-141.97;43.49;47275.00;5083179;28;20186;-75
2023/07/20 05:52:55;;;;;;;17.67;9.75;;;;;;;-141.97;42.72;47288.44;5082977;28;20887;-75
2023/07/20 05:55:20;;;;;;;15.68;8.60;;;;;;;-141.97;41.90;47269.22;5083599;28;20225;-75
2023/07/20 05:57:47;;;;;;;14.38;8.77;;;;;;;-141.97;41.96;47261.53;5083052;28;20213;-76
2023/07/20 06:00:13;;;;;;;18.50;8.98;;;;;;;-141.97;41.50;47253.84;5083318;28;20174;-76
2023/07/20 06:02:40;;;;;;;16.20;8.80;;;;;;;-141.97;41.48;47284.59;5082907;28;20238;-75
2023/07/20 06:05:10;;;;;;;17.67;8.57;;;;;;;-141.97;40.78;47292.28;5082715;28;20257;-76
2023/07/20 06:07:37;;;;;;;16.42;8.32;;;;;;;-141.97;40.65;47294.22;5082670;28;20184;-76
2023/07/20 06:10:02;;;;;;;15.25;8.85;;;;;;;-141.97;40.05;47215.41;5084701;28;20188;-75
2023/07/20 06:12:28;;;;;;;15.95;8.70;;;;;;;-141.97;39.56;47246.16;5085529;28;20982;-73
2023/07/20 06:14:54;;;;;;;19.58;8.60;;;;;;;-141.97;39.41;47255.78;5059085;28;20270;-73
2023/07/20 06:17:19;;;;;;;18.20;9.20;;;;;;;-141.97;39.50;47288.44;5042006;28;20725;-75
2023/07/20 06:19:45;;;;;;;17.48;8.98;;;;;;;-141.97;39.18;47246.16;5041866;28;20184;-76
2023/07/20 06:22:10;;;;;;;21.95;8.75;;;;;;;-141.97;38.85;47251.94;5042403;28;20232;-76
2023/07/20 06:24:35;;;;;;;14.75;8.45;;;;;;;-141.97;38.74;47242.31;5041813;28;20268;-75
2023/07/20 06:27:01;;;;;;;16.00;8.30;;;;;;;-141.97;39.37;47226.94;5041551;28;20236;-75
2023/07/20 06:29:26;;;;;;;15.15;8.50;;;;;;;-141.97;38.50;47284.59;5042109;28;20187;-77
2023/07/20 06:31:52;;;;;;;15.98;8.55;;;;;;;-141.97;38.57;47286.53;5042125;28;20238;-76
2023/07/20 06:34:17;;;;;;;16.27;8.95;;;;;;;-141.97;38.00;47248.09;5039836;28;20191;-76
2023/07/20 06:36:43;;;;;;;16.67;9.48;;;;;;;-141.97;37.80;47240.41;5041055;28;20681;-76
2023/07/20 06:39:08;;;;;;;13.82;8.95;;;;;;;-141.97;37.88;47303.81;5040415;28;20715;-75
2023/07/20 06:41:34;;;;;;;16.70;8.82;;;;;;;-141.97;37.74;47207.72;5041886;28;20197;-76
2023/07/20 06:43:59;;;;;;;20.67;9.60;;;;;;;-141.97;38.00;47273.06;5042440;28;20275;-74
2023/07/20 06:46:28;;;;;;;17.98;9.10;;;;;;;-141.97;37.57;47273.06;5041889;28;20284;-76
2023/07/20 06:48:53;;;;;;;16.35;9.40;;;;;;;-141.97;38.61;47226.94;5031920;28;20185;-76
2023/07/20 06:51:19;;;;;;;16.58;9.27;;;;;;;-141.97;37.83;47246.16;5027950;28;20590;-75
2023/07/20 06:53:44;;;;;;;12.30;8.57;;;;;;;-141.97;37.57;47251.94;5027239;28;20188;-71
2023/07/20 06:56:11;;;;;;;19.20;9.40;;;;;;;-141.97;36.75;47217.34;5028250;28;20204;-74
2023/07/20 06:58:36;;;;;;;12.13;8.98;;;;;;;-141.97;35.86;47207.72;5027527;28;20307;-75
2023/07/20 07:01:08;;;;;;;17.50;9.82;;;;;;;-141.97;35.69;47242.31;5026946;28;20196;-75
2023/07/20 07:03:33;;;;;;;13.38;9.45;;;;;;;-141.97;35.80;47238.47;5027645;28;20195;-75
2023/07/20 07:06:00;;;;;;;18.55;9.52;;;;;;;-141.97;35.58;47244.25;5026780;28;20719;-74
2023/07/20 07:08:25;;;;;;;14.05;9.32;;;;;;;-141.97;36.15;47213.50;5058621;28;20233;-75
2023/07/20 07:10:52;;;;;;;15.65;9.20;;;;;;;-141.97;35.75;47223.09;5027132;28;20183;-77
2023/07/20 07:13:17;;;;;;;16.10;8.93;;;;;;;-141.97;36.07;47269.22;5027845;28;20182;-77
2023/07/20 07:15:43;;;;;;;16.50;9.27;;;;;;;-141.97;36.18;47319.19;5015967;28;20616;-73
2023/07/20 07:18:08;;;;;;;12.48;8.43;;;;;;;-141.97;35.86;47250.00;5027298;28;20224;-74
2023/07/20 07:20:34;;;;;;;12.90;8.82;;;;;;;-141.97;36.13;47250.00;5027319;28;20876;-73
2023/07/20 07:23:00;;;;;;;14.18;9.52;;;;;;;-141.97;36.20;47248.09;5027232;28;20263;-76
2023/07/20 07:25:26;;;;;;;11.45;9.02;;;;;;;-141.97;35.69;47203.88;5027752;28;20650;-72
2023/07/20 07:27:53;;;;;;;13.93;8.57;;;;;;;-141.97;34.92;47213.50;5026836;28;20196;-75
2023/07/20 07:30:18;;;;;;;11.50;8.20;;;;;;;-141.97;34.30;47409.53;5027177;28;20696;-75
2023/07/20 07:32:44;;;;;;;12.35;9.18;;;;;;;-141.97;34.50;47201.97;5027580;28;20268;-74
2023/07/20 07:35:09;;;;;;;13.40;8.30;;;;;;;-141.97;33.96;47228.88;5024791;28;20193;-75
2023/07/20 07:37:35;;;;;;;17.75;8.75;;;;;;;-141.97;34.08;47184.66;5027222;28;20272;-75
2023/07/20 07:40:00;;;;;;;16.52;9.13;;;;;;;-141.97;34.11;47200.03;5025935;28;20230;-75
2023/07/20 07:42:25;;;;;;;16.98;9.38;;;;;;;-141.97;33.78;47182.75;5027352;28;20213;-76
2023/07/20 07:44:51;;;;;;;18.15;8.80;;;;;;;-141.97;34.10;47201.97;5027176;28;20218;-74
2023/07/20 07:47:16;;;;;;;12.38;8.10;;;;;;;-141.97;33.98;47163.53;5027772;28;20190;-76
2023/07/20 07:49:42;;;;;;;13.88;8.20;;;;;;;-141.97;33.41;47296.13;5029032;28;20278;-74
2023/07/20 07:52:08;;;;;;;10.93;7.75;;;;;;;-141.97;33.00;47184.66;5028208;28;20185;-75
2023/07/20 07:54:33;;;;;;;15.55;7.95;;;;;;;-141.97;32.63;47148.16;5026478;28;20251;-73
2023/07/20 07:56:59;;;;;;;12.68;8.57;;;;;;;-141.97;32.86;47228.88;5026482;28;20317;-73
2023/07/20 07:59:24;;;;;;;12.13;8.55;;;;;;;-141.97;33.00;47176.97;5025921;28;20572;-74
2023/07/20 08:01:50;;;;;;;12.07;8.25;;;;;;;-141.97;33.08;47182.75;5025071;28;20220;-75
2023/07/20 08:04:15;;;;;;;14.40;8.75;;;;;;;-141.97;33.17;47142.38;5026700;28;20182;-74
2023/07/20 08:06:41;;;;;;;12.80;8.70;;;;;;;-141.97;33.06;47176.97;5025930;28;20316;-74
2023/07/20 08:09:06;;;;;;;15.05;9.30;;;;;;;-141.97;33.17;47190.44;5026692;28;20232;-75
2023/07/20 08:11:33;;;;;;;13.43;8.95;;;;;;;-141.97;33.43;47169.28;5025192;28;20715;-75
2023/07/20 08:14:00;;;;;;;18.50;9.32;;;;;;;-141.97;33.47;47211.56;5026141;28;20201;-75
2023/07/20 08:16:26;;;;;;;13.45;9.27;;;;;;;-141.97;33.38;47159.69;5014294;28;20244;-74
2023/07/20 08:18:51;;;;;;;15.32;8.77;;;;;;;-141.97;33.55;47173.13;5026060;28;20181;-74
2023/07/20 08:21:17;;;;;;;15.57;8.70;;;;;;;-141.97;33.20;47171.22;5025394;28;20209;-75
2023/07/20 08:23:45;;;;;;;11.68;8.73;;;;;;;-141.97;32.27;47146.22;5026213;28;20225;-74
2023/07/20 08:26:11;;;;;;;14.13;9.63;;;;;;;-141.97;33.20;47190.44;5025397;28;20197;-74
2023/07/20 08:28:36;;;;;;;11.18;8.93;;;;;;;-141.97;32.57;47159.69;5025962;28;20317;-74
2023/07/20 08:31:05;;;;;;;15.23;8.82;;;;;;;-141.97;32.36;47148.16;5025418;28;20178;-73
2023/07/20 08:33:33;;;;;;;12.02;8.23;;;;;;;-141.97;32.25;47092.41;5025206;28;20187;-74
2023/07/20 08:35:58;;;;;;;11.20;8.77;;;;;;;-141.97;32.08;47115.47;5025184;28;20308;-75
2023/07/20 08:38:24;;;;;;;14.15;8.70;;;;;;;-141.97;32.25;47155.84;5025003;28;20909;-74
2023/07/20 08:40:53;;;;;;;10.95;8.90;;;;;;;-141.97;31.27;47184.66;5023606;28;20177;-75
2023/07/20 08:43:19;;;;;;;11.52;8.90;;;;;;;-141.97;31.59;47138.53;5025875;28;20286;-74
2023/07/20 08:45:44;;;;;;;13.02;8.70;;;;;;;-141.97;31.79;47130.84;5027201;28;20272;-75
2023/07/20 08:48:11;;;;;;;11.73;8.88;;;;;;;-141.97;31.53;47069.34;5027494;28;20192;-76
2023/07/20 08:50:38;;;;;;;13.90;9.13;;;;;;;-141.97;31.47;47142.38;5030070;28;20185;-75
2023/07/20 08:53:03;;;;;;;13.55;8.85;;;;;;;-141.97;31.90;47132.78;5024909;28;20227;-75
2023/07/20 08:55:30;;;;;;;16.80;9.15;;;;;;;-141.97;31.79;47100.09;5028208;28;20277;-75
2023/07/20 08:57:58;;;;;;;11.52;7.93;;;;;;;-141.97;31.55;47148.16;5023187;28;20347;-75
2023/07/20 09:00:24;;;;;;;11.52;8.95;;;;;;;-141.97;31.85;47123.16;5022646;28;20185;-76
2023/07/20 09:02:51;;;;;;;12.18;8.40;;;;;;;-141.97;31.92;47150.06;5023412;28;20186;-76
2023/07/20 09:05:18;;;;;;;12.43;8.50;;;;;;;-141.97;31.06;47278.84;5023256;28;20277;-75
2023/07/20 09:07:44;;;;;;;14.98;8.38;;;;;;;-141.97;30.98;47123.16;5023181;28;20190;-74
2023/07/20 09:10:10;;;;;;;12.98;8.43;;;;;;;-141.97;30.89;47111.63;5023380;28;20652;-75
2023/07/20 09:12:38;;;;;;;15.50;8.45;;;;;;;-141.97;31.13;47142.38;5022385;28;20268;-76
2023/07/20 09:15:05;;;;;;;11.38;8.55;;;;;;;-141.97;30.83;47138.53;5012285;28;20225;-75
2023/07/20 09:17:30;;;;;;;10.25;8.55;;;;;;;-141.97;30.89;47009.78;5023120;28;20733;-75
2023/07/20 09:19:56;;;;;;;10.88;9.00;;;;;;;-141.97;30.49;47221.19;5022792;28;20261;-75
2023/07/20 09:22:21;;;;;;;13.43;8.90;;;;;;;-141.97;30.51;47090.50;5022923;28;20285;-75
2023/07/20 09:24:47;;;;;;;13.38;8.50;;;;;;;-141.97;30.62;47119.31;5023048;28;20251;-76
2023/07/20 09:27:12;;;;;;;11.82;8.82;;;;;;;-141.97;30.68;47088.56;5023479;28;20245;-75
2023/07/20 09:29:51;;;;;;;14.05;9.18;;;;;;;-141.97;29.94;47077.03;5022921;28;21547;-75
2023/07/20 09:32:21;;;;;;;13.80;9.02;;;;;;;-141.97;30.09;47100.09;5022936;28;20216;-74
2023/07/20 09:34:47;;;;;;;11.77;8.98;;;;;;;-141.97;30.29;47088.56;5022956;28;20700;-75
2023/07/20 09:37:13;;;;;;;11.90;8.80;;;;;;;-141.97;30.44;47092.41;5022804;28;20229;-75
2023/07/20 09:39:45;;;;;;;13.95;8.82;;;;;;;-141.97;30.86;47127.00;5022350;28;20204;-74
2023/07/20 09:42:14;;;;;;;11.52;8.85;;;;;;;-141.97;30.85;47121.25;5021021;28;20186;-75
2023/07/20 09:44:43;;;;;;;16.05;10.85;;;;;;;-141.97;30.51;47100.09;5023165;28;20174;-76
2023/07/20 09:47:08;;;;;;;18.25;9.10;;;;;;;-141.97;30.25;47100.09;5024094;28;20190;-75
2023/07/20 09:49:39;;;;;;;11.68;9.13;;;;;;;-141.97;30.31;47057.81;5022797;28;20706;-75
2023/07/20 09:52:06;;;;;;;14.90;9.05;;;;;;;-141.97;30.01;47365.31;5022330;28;20248;-75
2023/07/20 09:54:32;;;;;;;15.13;9.23;;;;;;;-141.97;30.15;47075.13;5022831;28;20178;-75
2023/07/20 09:56:58;;;;;;;12.80;8.90;;;;;;;-141.97;30.53;47340.34;5022798;28;20358;-75
2023/07/20 09:59:23;;;;;;;12.48;9.10;;;;;;;-141.97;30.03;47109.72;5022985;28;20582;-75
2023/07/20 10:01:51;;;;;;;12.75;9.63;;;;;;;-141.97;30.23;47084.72;5022758;28;20189;-75
2023/07/20 10:04:18;;;;;;;12.35;9.35;;;;;;;-141.97;30.10;47100.09;5022571;28;20186;-75
2023/07/20 10:06:47;;;;;;;13.25;9.43;;;;;;;-141.97;29.71;47042.44;5023063;28;20922;-75
2023/07/20 10:09:15;;;;;;;13.48;9.30;;;;;;;-141.97;30.00;47125.09;5023164;28;20243;-75
2023/07/20 10:11:46;;;;;;;12.20;8.63;;;;;;;-141.97;29.39;47050.13;5022048;28;20193;-75
2023/07/20 10:14:14;;;;;;;12.40;8.20;;;;;;;-141.97;29.03;47055.91;5022458;28;20818;-76
2023/07/20 10:16:48;;;;;;;12.57;8.57;;;;;;;-141.97;29.69;47121.25;5013609;28;20251;-75
2023/07/20 10:19:30;;;;;;;14.02;8.60;;;;;;;-141.97;30.54;47065.50;5022377;28;20232;-76
2023/07/20 10:22:13;;;;;;;10.70;8.85;;;;;;;-141.97;30.94;47138.53;5022227;28;20526;-75
2023/07/20 10:24:39;;;;;;;11.93;8.23;;;;;;;-141.97;30.30;47130.84;5025302;28;20253;-74
2023/07/20 10:27:05;;;;;;;14.30;8.57;;;;;;;-141.97;29.74;47096.25;5026240;28;20193;-76
2023/07/20 10:29:32;;;;;;;12.20;8.80;;;;;;;-141.97;29.68;47119.31;5024921;28;20186;-74
2023/07/20 10:31:57;;;;;;;11.30;8.23;;;;;;;-141.97;29.48;47092.41;5025073;28;20224;-75
2023/07/20 10:34:24;;;;;;;18.13;8.40;;;;;;;-141.97;29.28;47090.50;5026353;28;20178;-75
2023/07/20 10:36:52;;;;;;;12.77;7.95;;;;;;;-141.97;29.14;47088.56;5025856;28;20241;-75
2023/07/20 10:39:33;;;;;;;14.10;8.27;;;;;;;-141.97;29.15;47092.41;5025528;28;20182;-76
2023/07/20 10:42:08;;;;;;;12.38;8.05;;;;;;;-141.97;28.75;47073.19;5025719;28;20178;-76
2023/07/20 10:44:33;;;;;;;12.93;7.97;;;;;;;-141.97;28.78;47094.34;5027755;28;20268;-76
2023/07/20 10:47:01;;;;;;;12.88;7.55;;;;;;;-141.97;28.14;47065.50;5027398;28;20317;-74
2023/07/20 10:49:27;;;;;;;13.38;8.05;;;;;;;-141.97;28.58;47055.91;5025847;28;20756;-76
2023/07/20 10:51:59;;;;;;;11.45;7.10;;;;;;;-141.97;28.00;47127.00;5025442;28;20197;-75
2023/07/20 10:54:24;;;;;;;11.63;6.97;;;;;;;-141.97;27.79;47088.56;5025423;28;20268;-76
2023/07/20 10:56:49;;;;;;;11.20;7.22;;;;;;;-141.97;28.83;47113.56;5025192;28;20765;-75
2023/07/20 10:59:24;;;;;;;12.65;7.30;;;;;;;-141.97;29.10;47125.09;5025682;28;20178;-76
2023/07/20 11:01:55;;;;;;;10.15;7.38;;;;;;;-141.97;28.45;47096.25;5025298;28;20196;-75
2023/07/20 11:04:44;;;;;;;12.25;7.70;;;;;;;-141.97;28.35;47069.34;5025615;28;20352;-75
2023/07/20 11:07:10;;;;;;;11.35;7.40;;;;;;;-141.97;28.17;47105.88;5025239;28;20186;-76
2023/07/20 11:09:37;;;;;;;10.18;6.95;;;;;;;-141.97;28.13;47096.25;5025699;28;20232;-75